sensor_id;sensor_type;location;lat;lon;timestamp;P1;durP1;ratioP1;P2;durP2;ratioP2
7719;SDS011;3902;49.474;8.616;2023-02-15T00:00:15;26.80;;;18.67;;
7719;SDS011;3902;49.474;8.616;2023-02-15T00:02:40;27.13;;;18.83;;
7719;SDS011;3902;49.474;8.616;2023-02-15T00:05:06;24.03;;;18.60;;
7719;SDS011;3902;49.474;8.616;2023-02-15T00:07:32;27.17;;;20.20;;
7719;SDS011;3902;49.474;8.616;2023-02-15T00:09:58;26.90;;;20.83;;
7719;SDS011;3902;49.474;8.616;2023-02-15T00:12:24;26.67;;;19.53;;
7719;SDS011;3902;49.474;8.616;2023-02-15T00:14:49;27.40;;;19.97;;
7719;SDS011;3902;49.474;8.616;2023-02-15T00:17:15;26.60;;;19.93;;
7719;SDS011;3902;49.474;8.616;2023-02-15T00:19:40;26.23;;;18.47;;
7719;SDS011;3902;49.474;8.616;2023-02-15T00:22:06;27.90;;;20.80;;
7719;SDS011;3902;49.474;8.616;2023-02-15T00:24:32;26.60;;;19.90;;
7719;SDS011;3902;49.474;8.616;2023-02-15T00:26:57;27.83;;;19.53;;
7719;SDS011;3902;49.474;8.616;2023-02-15T00:29:23;27.73;;;20.30;;
7719;SDS011;3902;49.474;8.616;2023-02-15T00:31:48;25.43;;;18.70;;
7719;SDS011;3902;49.474;8.616;2023-02-15T00:34:16;26.93;;;19.60;;
7719;SDS011;3902;49.474;8.616;2023-02-15T00:36:43;25.83;;;19.37;;
7719;SDS011;3902;49.474;8.616;2023-02-15T00:39:09;25.33;;;19.27;;
7719;SDS011;3902;49.474;8.616;2023-02-15T00:41:35;25.87;;;19.27;;
7719;SDS011;3902;49.474;8.616;2023-02-15T00:44:01;25.03;;;19.20;;
7719;SDS011;3902;49.474;8.616;2023-02-15T00:46:26;24.20;;;18.60;;
7719;SDS011;3902;49.474;8.616;2023-02-15T00:48:52;25.87;;;19.80;;
7719;SDS011;3902;49.474;8.616;2023-02-15T00:51:18;25.53;;;19.10;;
7719;SDS011;3902;49.474;8.616;2023-02-15T00:53:43;26.47;;;19.57;;
7719;SDS011;3902;49.474;8.616;2023-02-15T00:56:09;24.53;;;19.57;;
7719;SDS011;3902;49.474;8.616;2023-02-15T00:58:35;23.90;;;18.40;;
7719;SDS011;3902;49.474;8.616;2023-02-15T01:01:05;21.70;;;17.67;;
7719;SDS011;3902;49.474;8.616;2023-02-15T01:03:32;24.40;;;17.83;;
7719;SDS011;3902;49.474;8.616;2023-02-15T01:05:59;23.27;;;17.70;;
7719;SDS011;3902;49.474;8.616;2023-02-15T01:08:24;25.33;;;19.23;;
7719;SDS011;3902;49.474;8.616;2023-02-15T01:10:50;24.30;;;18.17;;
7719;SDS011;3902;49.474;8.616;2023-02-15T01:13:16;24.37;;;17.50;;
7719;SDS011;3902;49.474;8.616;2023-02-15T01:15:42;23.80;;;18.10;;
7719;SDS011;3902;49.474;8.616;2023-02-15T01:18:08;22.93;;;17.80;;
7719;SDS011;3902;49.474;8.616;2023-02-15T01:20:35;24.00;;;18.33;;
7719;SDS011;3902;49.474;8.616;2023-02-15T01:23:03;20.83;;;16.30;;
7719;SDS011;3902;49.474;8.616;2023-02-15T01:25:30;20.00;;;15.27;;
7719;SDS011;3902;49.474;8.616;2023-02-15T01:27:55;20.77;;;16.07;;
7719;SDS011;3902;49.474;8.616;2023-02-15T01:30:21;20.37;;;16.23;;
7719;SDS011;3902;49.474;8.616;2023-02-15T01:32:46;22.17;;;17.27;;
7719;SDS011;3902;49.474;8.616;2023-02-15T01:35:12;20.53;;;15.53;;
7719;SDS011;3902;49.474;8.616;2023-02-15T01:37:38;22.47;;;17.40;;
7719;SDS011;3902;49.474;8.616;2023-02-15T01:40:05;20.77;;;16.00;;
7719;SDS011;3902;49.474;8.616;2023-02-15T01:42:34;17.63;;;14.83;;
7719;SDS011;3902;49.474;8.616;2023-02-15T01:45:00;18.90;;;16.03;;
7719;SDS011;3902;49.474;8.616;2023-02-15T01:50:15;20.97;;;16.70;;
7719;SDS011;3902;49.474;8.616;2023-02-15T01:52:49;19.03;;;15.70;;
7719;SDS011;3902;49.474;8.616;2023-02-15T01:55:23;18.97;;;15.40;;
7719;SDS011;3902;49.474;8.616;2023-02-15T01:57:52;20.57;;;15.93;;
7719;SDS011;3902;49.474;8.616;2023-02-15T02:00:18;20.50;;;16.00;;
7719;SDS011;3902;49.474;8.616;2023-02-15T02:02:45;21.60;;;16.47;;
7719;SDS011;3902;49.474;8.616;2023-02-15T02:05:30;20.27;;;15.80;;
7719;SDS011;3902;49.474;8.616;2023-02-15T02:07:58;20.07;;;16.10;;
7719;SDS011;3902;49.474;8.616;2023-02-15T02:10:26;18.93;;;15.37;;
7719;SDS011;3902;49.474;8.616;2023-02-15T02:12:53;19.20;;;15.37;;
7719;SDS011;3902;49.474;8.616;2023-02-15T02:15:24;19.63;;;15.77;;
7719;SDS011;3902;49.474;8.616;2023-02-15T02:18:13;20.17;;;15.60;;
7719;SDS011;3902;49.474;8.616;2023-02-15T02:26:31;20.10;;;16.00;;
7719;SDS011;3902;49.474;8.616;2023-02-15T02:34:43;22.63;;;16.73;;
7719;SDS011;3902;49.474;8.616;2023-02-15T02:37:31;20.07;;;16.13;;
7719;SDS011;3902;49.474;8.616;2023-02-15T02:40:08;20.10;;;15.33;;
7719;SDS011;3902;49.474;8.616;2023-02-15T02:43:02;20.53;;;15.60;;
7719;SDS011;3902;49.474;8.616;2023-02-15T02:48:25;20.70;;;16.90;;
7719;SDS011;3902;49.474;8.616;2023-02-15T02:50:55;20.17;;;15.60;;
7719;SDS011;3902;49.474;8.616;2023-02-15T02:53:21;19.63;;;15.33;;
7719;SDS011;3902;49.474;8.616;2023-02-15T02:55:53;20.70;;;16.43;;
7719;SDS011;3902;49.474;8.616;2023-02-15T03:01:13;18.63;;;15.30;;
7719;SDS011;3902;49.474;8.616;2023-02-15T03:03:47;22.80;;;16.30;;
7719;SDS011;3902;49.474;8.616;2023-02-15T03:06:24;19.90;;;15.83;;
7719;SDS011;3902;49.474;8.616;2023-02-15T03:09:01;21.20;;;16.50;;
7719;SDS011;3902;49.474;8.616;2023-02-15T03:11:39;20.30;;;16.03;;
7719;SDS011;3902;49.474;8.616;2023-02-15T03:14:06;22.30;;;16.17;;
7719;SDS011;3902;49.474;8.616;2023-02-15T03:16:31;17.07;;;14.30;;
7719;SDS011;3902;49.474;8.616;2023-02-15T03:19:01;18.73;;;14.77;;
7719;SDS011;3902;49.474;8.616;2023-02-15T03:21:43;21.00;;;16.33;;
7719;SDS011;3902;49.474;8.616;2023-02-15T03:24:22;17.47;;;14.80;;
7719;SDS011;3902;49.474;8.616;2023-02-15T03:26:52;20.77;;;16.00;;
7719;SDS011;3902;49.474;8.616;2023-02-15T03:29:20;21.40;;;16.80;;
7719;SDS011;3902;49.474;8.616;2023-02-15T03:31:49;20.53;;;16.27;;
7719;SDS011;3902;49.474;8.616;2023-02-15T03:34:19;20.30;;;16.60;;
7719;SDS011;3902;49.474;8.616;2023-02-15T03:36:46;22.57;;;17.47;;
7719;SDS011;3902;49.474;8.616;2023-02-15T03:39:18;20.93;;;15.40;;
7719;SDS011;3902;49.474;8.616;2023-02-15T03:42:20;20.83;;;15.73;;
7719;SDS011;3902;49.474;8.616;2023-02-15T03:44:59;20.60;;;15.27;;
7719;SDS011;3902;49.474;8.616;2023-02-15T03:47:39;19.27;;;15.87;;
7719;SDS011;3902;49.474;8.616;2023-02-15T03:50:11;18.90;;;15.37;;
7719;SDS011;3902;49.474;8.616;2023-02-15T03:52:57;20.57;;;16.10;;
7719;SDS011;3902;49.474;8.616;2023-02-15T03:55:25;22.60;;;17.17;;
7719;SDS011;3902;49.474;8.616;2023-02-15T03:57:51;19.57;;;15.97;;
7719;SDS011;3902;49.474;8.616;2023-02-15T04:00:36;22.10;;;16.63;;
7719;SDS011;3902;49.474;8.616;2023-02-15T04:05:54;20.10;;;16.33;;
7719;SDS011;3902;49.474;8.616;2023-02-15T04:08:20;21.37;;;16.07;;
7719;SDS011;3902;49.474;8.616;2023-02-15T04:11:05;23.13;;;17.47;;
7719;SDS011;3902;49.474;8.616;2023-02-15T04:13:31;18.43;;;14.73;;
7719;SDS011;3902;49.474;8.616;2023-02-15T04:15:57;21.07;;;16.87;;
7719;SDS011;3902;49.474;8.616;2023-02-15T04:18:31;19.33;;;15.13;;
7719;SDS011;3902;49.474;8.616;2023-02-15T04:21:17;20.93;;;14.90;;
7719;SDS011;3902;49.474;8.616;2023-02-15T04:24:02;19.50;;;15.63;;
7719;SDS011;3902;49.474;8.616;2023-02-15T04:26:46;21.40;;;15.27;;
7719;SDS011;3902;49.474;8.616;2023-02-15T04:29:17;21.30;;;16.87;;
7719;SDS011;3902;49.474;8.616;2023-02-15T04:31:44;20.47;;;15.70;;
7719;SDS011;3902;49.474;8.616;2023-02-15T04:34:10;20.30;;;15.83;;
7719;SDS011;3902;49.474;8.616;2023-02-15T04:36:36;17.33;;;14.40;;
7719;SDS011;3902;49.474;8.616;2023-02-15T04:39:02;18.80;;;14.87;;
7719;SDS011;3902;49.474;8.616;2023-02-15T04:41:28;16.33;;;14.27;;
7719;SDS011;3902;49.474;8.616;2023-02-15T04:43:53;18.73;;;14.67;;
7719;SDS011;3902;49.474;8.616;2023-02-15T04:46:19;18.60;;;14.63;;
7719;SDS011;3902;49.474;8.616;2023-02-15T04:48:44;17.87;;;14.50;;
7719;SDS011;3902;49.474;8.616;2023-02-15T04:51:10;18.23;;;14.60;;
7719;SDS011;3902;49.474;8.616;2023-02-15T04:53:36;18.90;;;15.30;;
7719;SDS011;3902;49.474;8.616;2023-02-15T04:56:01;16.03;;;13.50;;
7719;SDS011;3902;49.474;8.616;2023-02-15T04:58:27;15.20;;;13.07;;
7719;SDS011;3902;49.474;8.616;2023-02-15T05:00:56;15.90;;;12.97;;
7719;SDS011;3902;49.474;8.616;2023-02-15T05:03:21;15.37;;;12.90;;
7719;SDS011;3902;49.474;8.616;2023-02-15T05:05:47;16.20;;;13.30;;
7719;SDS011;3902;49.474;8.616;2023-02-15T05:08:13;16.33;;;13.03;;
7719;SDS011;3902;49.474;8.616;2023-02-15T05:10:38;14.67;;;12.80;;
7719;SDS011;3902;49.474;8.616;2023-02-15T05:13:04;13.30;;;11.87;;
7719;SDS011;3902;49.474;8.616;2023-02-15T05:15:30;15.67;;;13.20;;
7719;SDS011;3902;49.474;8.616;2023-02-15T05:17:55;13.80;;;12.27;;
7719;SDS011;3902;49.474;8.616;2023-02-15T05:20:21;13.30;;;11.60;;
7719;SDS011;3902;49.474;8.616;2023-02-15T05:22:46;15.43;;;12.60;;
7719;SDS011;3902;49.474;8.616;2023-02-15T05:25:12;14.63;;;12.40;;
7719;SDS011;3902;49.474;8.616;2023-02-15T05:27:56;12.47;;;10.83;;
7719;SDS011;3902;49.474;8.616;2023-02-15T05:33:31;17.27;;;13.10;;
7719;SDS011;3902;49.474;8.616;2023-02-15T05:35:56;14.97;;;12.30;;
7719;SDS011;3902;49.474;8.616;2023-02-15T05:38:22;14.07;;;12.10;;
7719;SDS011;3902;49.474;8.616;2023-02-15T05:40:47;15.30;;;12.57;;
7719;SDS011;3902;49.474;8.616;2023-02-15T05:43:13;14.07;;;12.10;;
7719;SDS011;3902;49.474;8.616;2023-02-15T05:45:38;16.10;;;13.23;;
7719;SDS011;3902;49.474;8.616;2023-02-15T05:48:04;16.60;;;13.13;;
7719;SDS011;3902;49.474;8.616;2023-02-15T05:50:29;22.30;;;14.50;;
7719;SDS011;3902;49.474;8.616;2023-02-15T05:52:55;17.73;;;14.30;;
7719;SDS011;3902;49.474;8.616;2023-02-15T05:55:20;19.53;;;14.10;;
7719;SDS011;3902;49.474;8.616;2023-02-15T05:57:46;18.23;;;14.47;;
7719;SDS011;3902;49.474;8.616;2023-02-15T06:00:11;19.83;;;15.40;;
7719;SDS011;3902;49.474;8.616;2023-02-15T06:02:38;18.97;;;14.33;;
7719;SDS011;3902;49.474;8.616;2023-02-15T06:05:05;16.70;;;13.40;;
7719;SDS011;3902;49.474;8.616;2023-02-15T06:07:31;19.50;;;14.50;;
7719;SDS011;3902;49.474;8.616;2023-02-15T06:09:57;20.30;;;14.23;;
7719;SDS011;3902;49.474;8.616;2023-02-15T06:12:22;19.67;;;14.40;;
7719;SDS011;3902;49.474;8.616;2023-02-15T06:14:48;17.23;;;13.20;;
7719;SDS011;3902;49.474;8.616;2023-02-15T06:17:13;17.80;;;13.63;;
7719;SDS011;3902;49.474;8.616;2023-02-15T06:19:39;17.50;;;14.30;;
7719;SDS011;3902;49.474;8.616;2023-02-15T06:22:05;19.00;;;14.90;;
7719;SDS011;3902;49.474;8.616;2023-02-15T06:24:31;19.33;;;15.00;;
7719;SDS011;3902;49.474;8.616;2023-02-15T06:26:57;20.37;;;14.37;;
7719;SDS011;3902;49.474;8.616;2023-02-15T06:29:22;19.87;;;15.10;;
7719;SDS011;3902;49.474;8.616;2023-02-15T06:31:48;18.80;;;14.40;;
7719;SDS011;3902;49.474;8.616;2023-02-15T06:34:13;18.53;;;13.50;;
7719;SDS011;3902;49.474;8.616;2023-02-15T06:36:39;17.93;;;14.67;;
7719;SDS011;3902;49.474;8.616;2023-02-15T06:39:04;16.33;;;13.10;;
7719;SDS011;3902;49.474;8.616;2023-02-15T06:41:31;19.00;;;14.03;;
7719;SDS011;3902;49.474;8.616;2023-02-15T06:43:56;18.30;;;13.77;;
7719;SDS011;3902;49.474;8.616;2023-02-15T06:46:22;18.40;;;13.80;;
7719;SDS011;3902;49.474;8.616;2023-02-15T06:48:48;18.53;;;14.77;;
7719;SDS011;3902;49.474;8.616;2023-02-15T06:51:14;18.17;;;13.27;;
7719;SDS011;3902;49.474;8.616;2023-02-15T06:53:39;18.90;;;14.33;;
7719;SDS011;3902;49.474;8.616;2023-02-15T06:56:07;20.50;;;14.60;;
7719;SDS011;3902;49.474;8.616;2023-02-15T06:58:34;18.43;;;14.73;;
7719;SDS011;3902;49.474;8.616;2023-02-15T07:01:01;16.13;;;13.43;;
7719;SDS011;3902;49.474;8.616;2023-02-15T07:03:26;16.63;;;12.70;;
7719;SDS011;3902;49.474;8.616;2023-02-15T07:05:55;20.80;;;14.53;;
7719;SDS011;3902;49.474;8.616;2023-02-15T07:08:22;19.97;;;14.40;;
7719;SDS011;3902;49.474;8.616;2023-02-15T07:10:49;17.50;;;14.37;;
7719;SDS011;3902;49.474;8.616;2023-02-15T07:13:16;18.33;;;13.70;;
7719;SDS011;3902;49.474;8.616;2023-02-15T07:15:41;16.23;;;13.40;;
7719;SDS011;3902;49.474;8.616;2023-02-15T07:18:07;17.63;;;12.80;;
7719;SDS011;3902;49.474;8.616;2023-02-15T07:20:34;18.67;;;13.57;;
7719;SDS011;3902;49.474;8.616;2023-02-15T07:23:00;19.13;;;13.93;;
7719;SDS011;3902;49.474;8.616;2023-02-15T07:25:26;21.53;;;16.10;;
7719;SDS011;3902;49.474;8.616;2023-02-15T07:27:58;20.13;;;14.10;;
7719;SDS011;3902;49.474;8.616;2023-02-15T07:30:25;20.87;;;14.57;;
7719;SDS011;3902;49.474;8.616;2023-02-15T07:32:54;22.03;;;15.80;;
7719;SDS011;3902;49.474;8.616;2023-02-15T07:35:55;26.00;;;18.90;;
7719;SDS011;3902;49.474;8.616;2023-02-15T07:38:26;24.83;;;17.50;;
7719;SDS011;3902;49.474;8.616;2023-02-15T07:41:13;22.47;;;16.57;;
7719;SDS011;3902;49.474;8.616;2023-02-15T07:43:40;28.63;;;19.33;;
7719;SDS011;3902;49.474;8.616;2023-02-15T07:46:08;23.33;;;17.03;;
7719;SDS011;3902;49.474;8.616;2023-02-15T07:48:36;21.97;;;17.37;;
7719;SDS011;3902;49.474;8.616;2023-02-15T07:51:04;21.00;;;16.17;;
7719;SDS011;3902;49.474;8.616;2023-02-15T07:53:31;20.80;;;15.53;;
7719;SDS011;3902;49.474;8.616;2023-02-15T07:56:04;22.93;;;17.43;;
7719;SDS011;3902;49.474;8.616;2023-02-15T07:58:35;23.03;;;16.80;;
7719;SDS011;3902;49.474;8.616;2023-02-15T08:01:30;22.00;;;16.67;;
7719;SDS011;3902;49.474;8.616;2023-02-15T08:03:57;21.80;;;16.67;;
7719;SDS011;3902;49.474;8.616;2023-02-15T08:06:24;21.80;;;17.13;;
7719;SDS011;3902;49.474;8.616;2023-02-15T08:08:52;24.40;;;18.63;;
7719;SDS011;3902;49.474;8.616;2023-02-15T08:11:22;21.63;;;16.67;;
7719;SDS011;3902;49.474;8.616;2023-02-15T08:14:10;24.33;;;17.70;;
7719;SDS011;3902;49.474;8.616;2023-02-15T08:16:53;21.57;;;17.80;;
7719;SDS011;3902;49.474;8.616;2023-02-15T08:21:51;23.07;;;17.90;;
7719;SDS011;3902;49.474;8.616;2023-02-15T08:24:31;23.10;;;18.10;;
7719;SDS011;3902;49.474;8.616;2023-02-15T08:26:58;24.33;;;18.40;;
7719;SDS011;3902;49.474;8.616;2023-02-15T08:29:25;22.87;;;19.10;;
7719;SDS011;3902;49.474;8.616;2023-02-15T08:31:52;26.80;;;20.07;;
7719;SDS011;3902;49.474;8.616;2023-02-15T08:34:20;27.30;;;20.70;;
7719;SDS011;3902;49.474;8.616;2023-02-15T08:36:46;25.07;;;19.47;;
7719;SDS011;3902;49.474;8.616;2023-02-15T08:39:12;25.97;;;19.13;;
7719;SDS011;3902;49.474;8.616;2023-02-15T08:41:42;28.30;;;21.93;;
7719;SDS011;3902;49.474;8.616;2023-02-15T08:44:09;27.97;;;20.00;;
7719;SDS011;3902;49.474;8.616;2023-02-15T08:46:37;24.60;;;18.67;;
7719;SDS011;3902;49.474;8.616;2023-02-15T08:49:05;23.40;;;18.97;;
7719;SDS011;3902;49.474;8.616;2023-02-15T08:51:31;22.83;;;18.57;;
7719;SDS011;3902;49.474;8.616;2023-02-15T08:53:59;26.17;;;20.77;;
7719;SDS011;3902;49.474;8.616;2023-02-15T08:56:27;24.53;;;19.10;;
7719;SDS011;3902;49.474;8.616;2023-02-15T08:58:54;23.27;;;18.57;;
7719;SDS011;3902;49.474;8.616;2023-02-15T09:01:21;25.10;;;20.00;;
7719;SDS011;3902;49.474;8.616;2023-02-15T09:03:49;25.80;;;19.43;;
7719;SDS011;3902;49.474;8.616;2023-02-15T09:06:18;23.83;;;18.40;;
7719;SDS011;3902;49.474;8.616;2023-02-15T09:08:45;25.67;;;19.60;;
7719;SDS011;3902;49.474;8.616;2023-02-15T09:11:17;25.10;;;20.17;;
7719;SDS011;3902;49.474;8.616;2023-02-15T09:13:49;25.13;;;19.90;;
7719;SDS011;3902;49.474;8.616;2023-02-15T09:16:16;23.83;;;19.17;;
7719;SDS011;3902;49.474;8.616;2023-02-15T09:18:42;22.63;;;18.77;;
7719;SDS011;3902;49.474;8.616;2023-02-15T09:21:08;24.40;;;18.87;;
7719;SDS011;3902;49.474;8.616;2023-02-15T09:23:39;23.97;;;19.70;;
7719;SDS011;3902;49.474;8.616;2023-02-15T09:26:06;22.17;;;18.80;;
7719;SDS011;3902;49.474;8.616;2023-02-15T09:28:33;24.50;;;19.40;;
7719;SDS011;3902;49.474;8.616;2023-02-15T09:31:13;26.33;;;19.93;;
7719;SDS011;3902;49.474;8.616;2023-02-15T09:33:41;24.77;;;20.40;;
7719;SDS011;3902;49.474;8.616;2023-02-15T09:36:21;25.70;;;19.60;;
7719;SDS011;3902;49.474;8.616;2023-02-15T09:38:55;29.73;;;22.20;;
7719;SDS011;3902;49.474;8.616;2023-02-15T09:47:10;29.20;;;20.80;;
7719;SDS011;3902;49.474;8.616;2023-02-15T09:50:02;32.33;;;22.97;;
7719;SDS011;3902;49.474;8.616;2023-02-15T09:55:30;28.80;;;21.80;;
7719;SDS011;3902;49.474;8.616;2023-02-15T09:58:27;31.07;;;23.77;;
7719;SDS011;3902;49.474;8.616;2023-02-15T10:04:05;33.87;;;23.70;;
7719;SDS011;3902;49.474;8.616;2023-02-15T10:07:01;28.20;;;22.10;;
7719;SDS011;3902;49.474;8.616;2023-02-15T10:12:48;29.33;;;24.03;;
7719;SDS011;3902;49.474;8.616;2023-02-15T10:21:00;26.80;;;20.70;;
7719;SDS011;3902;49.474;8.616;2023-02-15T10:26:28;26.47;;;22.00;;
7719;SDS011;3902;49.474;8.616;2023-02-15T10:29:07;27.67;;;22.37;;
7719;SDS011;3902;49.474;8.616;2023-02-15T10:31:51;26.47;;;21.50;;
7719;SDS011;3902;49.474;8.616;2023-02-15T10:34:38;28.47;;;23.30;;
7719;SDS011;3902;49.474;8.616;2023-02-15T10:37:10;29.77;;;25.07;;
7719;SDS011;3902;49.474;8.616;2023-02-15T10:48:22;28.70;;;22.50;;
7719;SDS011;3902;49.474;8.616;2023-02-15T10:54:21;28.00;;;24.13;;
7719;SDS011;3902;49.474;8.616;2023-02-15T11:00:30;26.23;;;22.10;;
7719;SDS011;3902;49.474;8.616;2023-02-15T11:08:22;28.27;;;23.17;;
7719;SDS011;3902;49.474;8.616;2023-02-15T11:10:54;27.77;;;22.77;;
7719;SDS011;3902;49.474;8.616;2023-02-15T11:13:23;27.30;;;23.07;;
7719;SDS011;3902;49.474;8.616;2023-02-15T11:15:53;30.37;;;25.00;;
7719;SDS011;3902;49.474;8.616;2023-02-15T11:21:04;28.50;;;22.97;;
7719;SDS011;3902;49.474;8.616;2023-02-15T11:23:39;28.93;;;23.87;;
7719;SDS011;3902;49.474;8.616;2023-02-15T11:26:12;29.17;;;24.40;;
7719;SDS011;3902;49.474;8.616;2023-02-15T11:28:58;29.03;;;24.17;;
7719;SDS011;3902;49.474;8.616;2023-02-15T11:31:43;29.17;;;23.70;;
7719;SDS011;3902;49.474;8.616;2023-02-15T11:34:30;29.77;;;23.77;;
7719;SDS011;3902;49.474;8.616;2023-02-15T11:37:01;27.87;;;22.20;;
7719;SDS011;3902;49.474;8.616;2023-02-15T11:39:33;29.07;;;24.83;;
7719;SDS011;3902;49.474;8.616;2023-02-15T11:42:01;27.83;;;24.20;;
7719;SDS011;3902;49.474;8.616;2023-02-15T11:44:32;29.03;;;23.77;;
7719;SDS011;3902;49.474;8.616;2023-02-15T11:47:02;29.10;;;23.60;;
7719;SDS011;3902;49.474;8.616;2023-02-15T11:49:31;29.40;;;25.13;;
7719;SDS011;3902;49.474;8.616;2023-02-15T11:52:00;30.27;;;24.47;;
7719;SDS011;3902;49.474;8.616;2023-02-15T11:54:29;30.77;;;24.70;;
7719;SDS011;3902;49.474;8.616;2023-02-15T11:56:59;31.70;;;25.70;;
7719;SDS011;3902;49.474;8.616;2023-02-15T11:59:35;32.03;;;26.03;;
7719;SDS011;3902;49.474;8.616;2023-02-15T12:02:02;29.47;;;24.17;;
7719;SDS011;3902;49.474;8.616;2023-02-15T12:04:41;31.73;;;26.40;;
7719;SDS011;3902;49.474;8.616;2023-02-15T12:09:52;30.30;;;26.20;;
7719;SDS011;3902;49.474;8.616;2023-02-15T12:12:39;30.13;;;25.63;;
7719;SDS011;3902;49.474;8.616;2023-02-15T12:15:08;33.50;;;27.27;;
7719;SDS011;3902;49.474;8.616;2023-02-15T12:17:37;33.20;;;26.07;;
7719;SDS011;3902;49.474;8.616;2023-02-15T12:22:39;31.20;;;25.70;;
7719;SDS011;3902;49.474;8.616;2023-02-15T12:27:57;30.33;;;26.03;;
7719;SDS011;3902;49.474;8.616;2023-02-15T12:30:31;27.40;;;23.60;;
7719;SDS011;3902;49.474;8.616;2023-02-15T12:33:07;29.57;;;25.60;;
7719;SDS011;3902;49.474;8.616;2023-02-15T12:35:39;30.50;;;25.57;;
7719;SDS011;3902;49.474;8.616;2023-02-15T12:40:36;30.77;;;25.77;;
7719;SDS011;3902;49.474;8.616;2023-02-15T12:43:03;31.93;;;24.80;;
7719;SDS011;3902;49.474;8.616;2023-02-15T12:45:34;32.33;;;26.90;;
7719;SDS011;3902;49.474;8.616;2023-02-15T12:48:18;30.40;;;24.90;;
7719;SDS011;3902;49.474;8.616;2023-02-15T12:50:48;31.57;;;25.03;;
7719;SDS011;3902;49.474;8.616;2023-02-15T12:53:16;29.60;;;24.90;;
7719;SDS011;3902;49.474;8.616;2023-02-15T12:55:51;27.80;;;24.20;;
7719;SDS011;3902;49.474;8.616;2023-02-15T13:00:48;33.77;;;26.70;;
7719;SDS011;3902;49.474;8.616;2023-02-15T13:03:26;33.00;;;27.73;;
7719;SDS011;3902;49.474;8.616;2023-02-15T13:05:51;32.17;;;27.03;;
7719;SDS011;3902;49.474;8.616;2023-02-15T13:08:28;31.63;;;26.17;;
7719;SDS011;3902;49.474;8.616;2023-02-15T13:11:08;30.77;;;26.63;;
7719;SDS011;3902;49.474;8.616;2023-02-15T13:13:55;31.47;;;26.20;;
7719;SDS011;3902;49.474;8.616;2023-02-15T13:16:32;33.50;;;25.83;;
7719;SDS011;3902;49.474;8.616;2023-02-15T13:21:52;29.60;;;24.00;;
7719;SDS011;3902;49.474;8.616;2023-02-15T13:24:26;31.90;;;25.27;;
7719;SDS011;3902;49.474;8.616;2023-02-15T13:26:58;29.40;;;25.27;;
7719;SDS011;3902;49.474;8.616;2023-02-15T13:29:28;30.93;;;26.23;;
7719;SDS011;3902;49.474;8.616;2023-02-15T13:31:55;29.37;;;24.53;;
7719;SDS011;3902;49.474;8.616;2023-02-15T13:34:36;29.20;;;25.73;;
7719;SDS011;3902;49.474;8.616;2023-02-15T13:39:47;29.20;;;24.00;;
7719;SDS011;3902;49.474;8.616;2023-02-15T13:42:31;29.33;;;24.80;;
7719;SDS011;3902;49.474;8.616;2023-02-15T13:48:07;28.37;;;24.63;;
7719;SDS011;3902;49.474;8.616;2023-02-15T13:50:49;29.17;;;25.47;;
7719;SDS011;3902;49.474;8.616;2023-02-15T13:55:53;32.20;;;26.60;;
7719;SDS011;3902;49.474;8.616;2023-02-15T13:58:37;29.93;;;25.87;;
7719;SDS011;3902;49.474;8.616;2023-02-15T14:01:10;29.70;;;25.00;;
7719;SDS011;3902;49.474;8.616;2023-02-15T14:04:13;29.67;;;25.10;;
7719;SDS011;3902;49.474;8.616;2023-02-15T14:06:53;28.03;;;24.70;;
7719;SDS011;3902;49.474;8.616;2023-02-15T14:15:19;26.50;;;22.97;;
7719;SDS011;3902;49.474;8.616;2023-02-15T14:21:03;28.13;;;22.07;;
7719;SDS011;3902;49.474;8.616;2023-02-15T14:24:18;23.57;;;18.90;;
7719;SDS011;3902;49.474;8.616;2023-02-15T14:29:46;24.67;;;20.03;;
7719;SDS011;3902;49.474;8.616;2023-02-15T14:32:30;22.70;;;19.77;;
7719;SDS011;3902;49.474;8.616;2023-02-15T14:34:59;21.83;;;18.80;;
7719;SDS011;3902;49.474;8.616;2023-02-15T14:37:32;22.60;;;19.50;;
7719;SDS011;3902;49.474;8.616;2023-02-15T14:40:34;20.87;;;18.63;;
7719;SDS011;3902;49.474;8.616;2023-02-15T14:43:31;22.90;;;19.57;;
7719;SDS011;3902;49.474;8.616;2023-02-15T14:48:45;21.10;;;18.30;;
7719;SDS011;3902;49.474;8.616;2023-02-15T14:54:06;21.00;;;18.40;;
7719;SDS011;3902;49.474;8.616;2023-02-15T14:56:32;21.63;;;17.17;;
7719;SDS011;3902;49.474;8.616;2023-02-15T14:58:58;22.13;;;19.67;;
7719;SDS011;3902;49.474;8.616;2023-02-15T15:01:37;22.23;;;19.70;;
7719;SDS011;3902;49.474;8.616;2023-02-15T15:04:05;20.63;;;18.43;;
7719;SDS011;3902;49.474;8.616;2023-02-15T15:06:34;21.50;;;19.20;;
7719;SDS011;3902;49.474;8.616;2023-02-15T15:09:22;21.50;;;18.73;;
7719;SDS011;3902;49.474;8.616;2023-02-15T15:11:52;22.80;;;20.40;;
7719;SDS011;3902;49.474;8.616;2023-02-15T15:16:56;21.20;;;19.07;;
7719;SDS011;3902;49.474;8.616;2023-02-15T15:24:52;22.50;;;20.20;;
7719;SDS011;3902;49.474;8.616;2023-02-15T15:32:41;21.13;;;18.90;;
7719;SDS011;3902;49.474;8.616;2023-02-15T15:46:37;21.63;;;19.40;;
7719;SDS011;3902;49.474;8.616;2023-02-15T15:49:30;23.10;;;20.70;;
7719;SDS011;3902;49.474;8.616;2023-02-15T15:52:02;24.10;;;21.27;;
7719;SDS011;3902;49.474;8.616;2023-02-15T15:54:43;24.60;;;22.10;;
7719;SDS011;3902;49.474;8.616;2023-02-15T15:59:45;24.77;;;21.77;;
7719;SDS011;3902;49.474;8.616;2023-02-15T16:02:13;23.30;;;21.00;;
7719;SDS011;3902;49.474;8.616;2023-02-15T16:04:42;27.70;;;24.27;;
7719;SDS011;3902;49.474;8.616;2023-02-15T16:07:13;25.63;;;22.63;;
7719;SDS011;3902;49.474;8.616;2023-02-15T16:09:58;28.03;;;22.10;;
7719;SDS011;3902;49.474;8.616;2023-02-15T16:12:35;25.97;;;23.20;;
7719;SDS011;3902;49.474;8.616;2023-02-15T16:15:04;25.53;;;22.47;;
7719;SDS011;3902;49.474;8.616;2023-02-15T16:17:40;25.67;;;22.97;;
7719;SDS011;3902;49.474;8.616;2023-02-15T16:20:16;26.37;;;23.30;;
7719;SDS011;3902;49.474;8.616;2023-02-15T16:22:48;26.27;;;23.47;;
7719;SDS011;3902;49.474;8.616;2023-02-15T16:25:22;25.90;;;23.07;;
7719;SDS011;3902;49.474;8.616;2023-02-15T16:27:56;24.57;;;21.90;;
7719;SDS011;3902;49.474;8.616;2023-02-15T16:30:32;26.23;;;23.43;;
7719;SDS011;3902;49.474;8.616;2023-02-15T16:35:30;33.23;;;27.63;;
7719;SDS011;3902;49.474;8.616;2023-02-15T16:37:56;40.30;;;31.97;;
7719;SDS011;3902;49.474;8.616;2023-02-15T16:42:47;68.67;;;48.97;;
7719;SDS011;3902;49.474;8.616;2023-02-15T16:45:15;60.77;;;47.03;;
7719;SDS011;3902;49.474;8.616;2023-02-15T16:47:44;54.00;;;40.70;;
7719;SDS011;3902;49.474;8.616;2023-02-15T16:50:17;53.97;;;44.47;;
7719;SDS011;3902;49.474;8.616;2023-02-15T16:53:04;60.30;;;46.13;;
7719;SDS011;3902;49.474;8.616;2023-02-15T16:55:39;53.87;;;43.93;;
7719;SDS011;3902;49.474;8.616;2023-02-15T16:58:07;52.70;;;44.00;;
7719;SDS011;3902;49.474;8.616;2023-02-15T17:00:38;47.77;;;40.83;;
7719;SDS011;3902;49.474;8.616;2023-02-15T17:03:12;44.57;;;36.80;;
7719;SDS011;3902;49.474;8.616;2023-02-15T17:05:56;39.17;;;33.63;;
7719;SDS011;3902;49.474;8.616;2023-02-15T17:08:32;33.00;;;29.07;;
7719;SDS011;3902;49.474;8.616;2023-02-15T17:11:13;34.10;;;29.30;;
7719;SDS011;3902;49.474;8.616;2023-02-15T17:14:17;31.30;;;27.70;;
7719;SDS011;3902;49.474;8.616;2023-02-15T17:16:46;34.67;;;28.87;;
7719;SDS011;3902;49.474;8.616;2023-02-15T17:19:16;34.60;;;28.60;;
7719;SDS011;3902;49.474;8.616;2023-02-15T17:21:46;32.77;;;28.27;;
7719;SDS011;3902;49.474;8.616;2023-02-15T17:24:18;30.60;;;26.00;;
7719;SDS011;3902;49.474;8.616;2023-02-15T17:27:14;30.10;;;26.07;;
7719;SDS011;3902;49.474;8.616;2023-02-15T17:29:50;35.33;;;27.90;;
7719;SDS011;3902;49.474;8.616;2023-02-15T17:32:24;38.83;;;30.30;;
7719;SDS011;3902;49.474;8.616;2023-02-15T17:37:45;35.40;;;30.03;;
7719;SDS011;3902;49.474;8.616;2023-02-15T17:40:25;44.23;;;33.50;;
7719;SDS011;3902;49.474;8.616;2023-02-15T17:42:52;41.73;;;32.90;;
7719;SDS011;3902;49.474;8.616;2023-02-15T17:45:18;43.70;;;35.13;;